Latest Weather Observations for Kingaroy

IDQ60901

Issued at 11:11 am EST Thursday 27 April 2017 (issued every 10 minutes, with the page automatically refreshed every 10 minutes)

About weather observations | Map of Brisbane area stations | Latest observations for Brisbane area | Other Formats
Station Details ID: 040922 Name: KINGAROY AIRPORT Lat: -26.57 Lon: 151.84 Height: 433.67 m
Data from the previous 72 hours. | See also: Recent months at Kingaroy
Date/Time
EST
Temp
°C
App
Temp
°C
Dew
Point
°C
Rel
Hum
%
Delta-T
°C
Wind Press
QNH
hPa
Press
MSL
hPa
Rain since
9am
mm
Dir  Spd
km/h
Gust
km/h
Spd
kts
Gust
kts
27/11:00am 16.9 11.8 2.9 39 6.5 SSW 19 30 10 16 1016.0 1014.5 0.2
27/10:30am 16.9 11.8 2.9 39 6.5 SW 19 28 10 15 1016.4 1014.8 0.2
27/10:00am 16.5 11.6 4.2 44 5.9 SSW 19 28 10 15 1016.5 1014.9 0.2
27/09:30am 14.4 11.3 5.7 56 4.2 WSW 11 17 6 9 1016.6 1015.0 0.2
27/09:00am 13.1 9.6 5.3 59 3.7 WSW 13 19 7 10 1016.6 1015.0 0.6
27/08:30am 12.1 9.0 5.7 65 3.1 WSW 11 17 6 9 1016.5 1014.9 0.6
27/08:00am 11.0 9.0 6.4 73 2.2 W 6 9 3 5 1016.1 1014.6 0.6
27/07:30am 8.6 7.8 6.6 87 0.9 CALM 0 0 0 0 1015.9 1014.4 0.6
27/07:00am 6.0 3.5 4.8 92 0.5 NW 7 9 4 5 1015.7 1014.2 0.6
27/06:30am 6.4 3.8 4.1 85 1.0 SW 7 9 4 5 1015.3 1013.8 0.6
27/06:00am 6.7 3.3 4.0 83 1.2 S 11 17 6 9 1015.1 1013.5 0.6
27/05:30am 7.4 4.4 4.2 80 1.4 S 9 13 5 7 1014.9 1013.3 0.6
27/05:00am 7.6 4.5 3.6 76 1.8 SSE 9 13 5 7 1014.7 1013.1 0.6
27/04:30am 8.3 5.0 4.7 78 1.6 S 11 17 6 9 1014.6 1013.0 0.6
27/04:00am 8.7 5.4 4.3 74 2.0 SSE 11 15 6 8 1014.5 1012.9 0.6
27/03:30am 9.7 6.2 5.5 75 2.0 S 13 20 7 11 1014.5 1012.9 0.6
27/03:00am 9.0 5.6 5.9 81 1.5 S 13 15 7 8 1014.5 1012.9 0.6
27/02:30am 10.9 6.5 7.2 78 1.8 S 20 24 11 13 1014.5 1012.9 0.6
27/02:00am 12.0 8.6 9.0 82 1.5 SSE 17 20 9 11 1014.5 1012.9 0.6
27/01:30am 13.6 11.1 9.8 78 2.0 SSW 13 17 7 9 1014.7 1013.1 0.6
27/01:00am 14.5 11.7 10.1 75 2.3 SW 15 20 8 11 1014.5 1012.9 0.6
27/12:30am 14.9 12.7 10.7 76 2.3 SW 13 20 7 11 1014.3 1012.7 0.6
27/12:00am 14.5 13.5 10.9 79 1.9 WSW 7 9 4 5 1014.3 1012.7 0.6
 
Date/Time
EST
Temp
°C
App
Temp
°C
Dew
Point
°C
Rel
Hum
%
Delta-T
°C
Wind Press
QNH
hPa
Press
MSL
hPa
Rain since
9am
mm
Dir  Spd
km/h
Gust
km/h
Spd
kts
Gust
kts
26/11:30pm 15.1 14.4 11.3 78 2.1 W 6 7 3 4 1014.4 1012.8 0.6
26/11:00pm 16.2 15.2 12.2 77 2.2 SW 9 15 5 8 1014.3 1012.7 0.6
26/10:30pm 15.9 15.1 13.0 83 1.6 SW 9 11 5 6 1014.3 1012.7 0.6
26/10:00pm 17.3 17.5 14.6 84 1.6 SW 7 13 4 7 1014.3 1012.7 0.6
26/09:30pm 17.6 17.6 15.2 86 1.4 WSW 9 17 5 9 1014.2 1012.6 0.6
26/09:00pm 17.9 18.5 15.7 87 1.3 W 7 9 4 5 1014.0 1012.4 0.6
26/08:30pm 18.4 19.2 15.8 85 1.6 W 6 9 3 5 1013.6 1012.1 0.6
26/08:00pm 18.4 18.5 15.6 84 1.7 WNW 9 11 5 6 1013.4 1011.9 0.6
26/07:30pm 18.9 19.2 16.0 83 1.8 W 9 13 5 7 1013.1 1011.6 0.6
26/07:00pm 18.4 19.9 16.6 89 1.1 WSW 4 9 2 5 1012.8 1011.2 0.6
26/06:30pm 18.7 19.9 16.9 89 1.1 W 6 7 3 4 1012.5 1010.9 0.6
26/06:00pm 18.9 19.9 16.3 85 1.6 W 6 6 3 3 1012.1 1010.5 0.6
26/05:30pm 20.1 21.3 16.9 82 2.0 W 6 9 3 5 1011.7 1010.1 0.6
26/05:00pm 20.8 21.6 17.4 81 2.1 W 9 11 5 6 1011.6 1010.0 0.6
26/04:30pm 20.8 22.6 18.4 86 1.5 WNW 6 7 3 4 1011.8 1010.2 0.6
26/04:00pm 20.9 21.6 17.9 83 1.9 NNW 11 15 6 8 1011.3 1009.8 0.6
26/03:30pm 21.3 22.1 18.1 82 2.0 NNW 11 13 6 7 1011.5 1009.9 0.6
26/03:00pm 21.0 22.2 18.2 84 1.8 NW 9 13 5 7 1011.6 1010.0 0.6
26/02:30pm 20.4 20.1 16.4 78 2.5 W 13 17 7 9 1011.9 1010.3 0.6
26/02:00pm 23.6 21.6 14.9 58 5.3 WNW 19 26 10 14 1011.8 1010.2 0.0
26/01:30pm 24.2 22.4 15.4 58 5.4 WNW 19 28 10 15 1012.0 1010.4 0.0
26/01:00pm 24.9 23.1 16.1 58 5.5 NW 20 37 11 20 1012.2 1010.6 0.0
26/12:30pm 23.8 21.9 15.8 61 4.9 NW 20 30 11 16 1012.8 1011.2 0.0
26/12:00pm 22.6 20.1 15.2 63 4.5 NW 22 35 12 19 1013.4 1011.9 0.0
26/11:30am 22.5 20.8 16.3 68 3.8 NW 20 26 11 14 1014.2 1012.6 0.0
26/11:00am 21.5 20.3 16.2 72 3.3 NNW 17 24 9 13 1014.7 1013.1 0.0
26/10:30am 20.9 19.6 15.7 72 3.2 NW 17 24 9 13 1015.2 1013.7 0.0
26/10:00am 20.9 19.2 15.7 72 3.2 WNW 19 26 10 14 1016.0 1014.5 0.0
26/09:30am 21.6 20.0 16.1 71 3.4 NNW 19 28 10 15 1015.6 1014.1 0.0
26/09:00am 21.4 19.8 16.1 72 3.2 NNW 19 24 10 13 1015.7 1014.2 0.0
26/08:40am 20.4 18.6 16.0 76 2.7 NNW 20 28 11 15 1015.8 1014.3 0.0
26/08:30am 20.8 19.4 17.0 79 2.4 NNW 20 26 11 14 1015.8 1014.3 0.0
26/08:00am 18.9 17.5 16.5 86 1.5 NNW 19 28 10 15 1016.1 1014.6 0.0
26/07:30am 18.3 17.5 17.0 92 0.8 NNW 17 22 9 12 1015.8 1014.3 0.0
26/07:00am 17.6 16.9 16.5 93 0.7 NNW 15 19 8 10 1015.7 1014.2 0.0
26/06:30am 17.4 15.9 16.3 93 0.7 N 19 24 10 13 1015.4 1013.9 0.0
26/06:00am 17.2 16.1 16.4 95 0.5 NNW 17 22 9 12 1015.3 1013.8 0.0
26/05:30am 16.4 17.2 15.9 97 0.3 NNW 6 9 3 5 1015.1 1013.5 0.0
26/05:00am 16.3 17.1 15.8 97 0.3 NW 6 7 3 4 1015.4 1013.9 0.0
26/04:30am 15.9 16.6 15.6 98 0.2 NNW 6 9 3 5 1015.3 1013.8 0.0
26/04:00am 15.6 17.3 15.3 98 0.2 CALM 0 0 0 0 1015.3 1013.8 0.0
26/03:30am 14.9 16.3 14.4 97 0.3 CALM 0 4 0 2 1015.5 1014.0 0.0
26/03:12am 14.1 15.2 13.5 96 0.3 CALM 0 0 0 0 1015.5 1014.0 0.0
26/03:00am 13.8 14.8 13.2 96 0.3 CALM 0 0 0 0 1015.4 1013.9 0.0
26/02:52am 13.5 14.3 12.7 95 0.4 CALM 0 0 0 0 1015.4 1013.9 0.0
26/02:42am 13.8 14.8 13.2 96 0.3 CALM 0 0 0 0 1015.4 1013.9 0.0
26/02:30am 14.3 15.5 13.7 96 0.3 CALM 0 0 0 0 1015.4 1013.9 0.0
26/02:10am 14.5 15.7 13.9 96 0.3 CALM 0 0 0 0 1015.5 1014.0 0.0
26/02:00am 14.1 15.2 13.5 96 0.3 CALM 0 0 0 0 1015.5 1014.0 0.0
26/01:30am 14.7 14.9 14.1 96 0.3 WNW 6 7 3 4 1015.6 1014.1 0.0
26/01:00am 15.1 15.3 14.3 95 0.5 NNW 6 7 3 4 1015.6 1014.1 0.0
26/12:40am 15.5 16.2 14.4 93 0.6 NW 4 6 2 3 1015.8 1014.3 0.0
26/12:30am 15.4 15.6 14.3 93 0.6 NW 6 7 3 4 1016.0 1014.5 0.0
26/12:00am 15.9 16.4 14.9 94 0.6 N 6 9 3 5 1016.5 1014.9 0.0
 
Date/Time
EST
Temp
°C
App
Temp
°C
Dew
Point
°C
Rel
Hum
%
Delta-T
°C
Wind Press
QNH
hPa
Press
MSL
hPa
Rain since
9am
mm
Dir  Spd
km/h
Gust
km/h
Spd
kts
Gust
kts
25/11:30pm 15.8 15.9 14.5 92 0.8 W 7 11 4 6 1016.6 1015.0 0.0
25/11:00pm 16.7 17.3 15.4 92 0.8 N 6 9 3 5 1016.6 1015.0 0.0
25/10:30pm 16.3 17.8 14.7 90 0.9 CALM 0 2 0 1 1016.9 1015.3 0.0
25/10:00pm 17.4 17.6 15.7 90 1.0 NNE 9 15 5 8 1017.3 1015.8 0.0
25/09:30pm 16.4 17.4 14.4 88 1.2 WSW 2 9 1 5 1017.4 1015.9 0.0
25/09:00pm 16.3 16.0 12.8 80 2.0 N 6 9 3 5 1017.6 1016.1 0.0
25/08:30pm 16.2 16.9 12.2 77 2.2 CALM 0 0 0 0 1017.4 1015.9 0.0
25/08:00pm 15.1 15.6 11.5 79 2.0 CALM 0 0 0 0 1017.3 1015.8 0.0
25/07:30pm 16.7 17.3 12.0 74 2.6 CALM 0 0 0 0 1017.0 1015.4 0.0
25/07:00pm 16.9 17.3 11.2 69 3.1 CALM 0 0 0 0 1016.7 1015.1 0.0
25/06:30pm 19.0 18.8 11.8 63 4.1 NE 4 7 2 4 1016.4 1014.8 0.0
25/06:00pm 20.0 20.5 11.5 58 4.8 CALM 0 6 0 3 1016.1 1014.6 0.0
25/05:30pm 21.9 20.3 11.6 52 5.9 N 11 13 6 7 1016.2 1014.7 0.0
25/05:00pm 22.7 20.9 10.8 47 6.7 NNW 11 15 6 8 1016.2 1014.7 0.0
25/04:30pm 24.6 23.3 11.2 43 7.7 N 9 15 5 8 1016.2 1014.7 0.0
25/04:00pm 24.9 23.0 11.8 44 7.6 NNW 13 19 7 10 1016.0 1014.5 0.0
25/03:30pm 25.2 23.2 10.3 39 8.4 NNW 11 15 6 8 1015.9 1014.4 0.0
25/03:00pm 25.4 23.5 11.9 43 7.8 N 13 19 7 10 1016.0 1014.5 0.0
25/02:30pm 24.6 23.2 12.2 46 7.2 N 11 17 6 9 1016.2 1014.7 0.0
25/02:00pm 26.2 26.1 13.3 45 7.7 ENE 6 13 3 7 1016.7 1015.1 0.0
25/01:30pm 25.2 23.9 11.4 42 8.0 NNW 9 17 5 9 1017.0 1015.4 0.0
25/01:00pm 24.3 23.0 11.3 44 7.4 WNW 9 15 5 8 1017.4 1015.9 0.0
25/12:30pm 24.5 23.7 12.8 48 6.9 NE 9 13 5 7 1018.0 1016.5 0.0
25/12:00pm 24.2 23.5 13.1 50 6.5 NE 9 15 5 8 1018.8 1017.2 0.0
25/11:30am 23.4 22.6 14.1 56 5.6 NNW 11 17 6 9 1019.3 1017.8 0.0
25/11:00am 22.9 21.8 14.2 58 5.2 N 13 17 7 9 1019.7 1018.2 0.0
25/10:30am 22.0 22.2 14.6 63 4.4 NE 7 15 4 8 1020.2 1018.7 0.0
25/10:00am 21.1 20.8 14.3 65 4.0 E 9 15 5 8 1020.6 1019.1 0.0
25/09:30am 20.4 21.1 16.0 76 2.7 ENE 7 13 4 7 1020.8 1019.3 0.0
25/09:00am 18.3 19.4 16.5 89 1.1 SSW 6 13 3 7 1020.9 1019.4 0.0
25/08:54am 17.9 19.3 17.3 96 0.4 S 6 9 3 5 1020.9 1019.4 0.0
25/08:30am 16.4 18.1 16.2 99 0.1 S 2 6 1 3 1020.8 1019.3 0.0
25/08:26am 16.5 17.9 16.3 99 0.1 S 4 9 2 5 1020.9 1019.4 0.0
25/08:00am 15.1 15.4 14.9 99 0.1 S 7 9 4 5 1020.9 1019.4 0.0
25/07:30am 14.3 15.6 14.1 99 0.1 CALM 0 7 0 4 1020.7 1019.2 0.0
25/07:00am 12.5 12.1 12.3 99 0.1 E 6 7 3 4 1020.4 1018.9 0.0
25/06:30am 12.0 12.5 11.7 98 0.2 CALM 0 0 0 0 1020.4 1018.9 0.0
25/06:00am 11.6 12.0 11.3 98 0.2 CALM 0 0 0 0 1020.0 1018.5 0.0
25/05:30am 11.2 11.1 10.9 98 0.2 NW 2 7 1 4 1019.6 1018.1 0.0
25/05:00am 10.7 10.4 10.2 97 0.3 NNW 2 6 1 3 1019.5 1018.0 0.0
25/04:30am 10.2 9.8 9.7 97 0.3 SE 2 7 1 4 1019.4 1017.9 0.0
25/04:00am 10.6 9.5 10.1 97 0.3 SE 6 7 3 4 1019.5 1018.0 0.0
25/03:47am 9.5 9.2 8.7 95 0.4 CALM 0 0 0 0 1019.5 1018.0 0.0
25/03:44am 9.5 9.2 8.7 95 0.4 CALM 0 0 0 0 1019.5 1018.0 0.0
25/03:30am 9.5 9.2 8.7 95 0.4 CALM 0 0 0 0 1019.5 1018.0 0.0
25/03:20am 9.1 8.7 8.3 95 0.4 CALM 0 0 0 0 1019.5 1018.0 0.0
25/03:02am 9.3 8.9 8.4 94 0.4 CALM 0 0 0 0 1019.7 1018.2 0.0
25/03:00am 9.2 8.8 8.3 94 0.4 CALM 0 0 0 0 1019.7 1018.2 0.0
25/02:30am 10.2 9.0 9.4 95 0.4 SE 6 7 3 4 1019.9 1018.4 0.0
25/02:00am 10.3 10.2 9.4 94 0.5 CALM 0 0 0 0 1019.8 1018.3 0.0
25/01:30am 9.9 9.6 8.8 93 0.6 CALM 0 0 0 0 1020.1 1018.6 0.0
25/01:00am 10.4 9.1 9.3 93 0.6 SSE 6 7 3 4 1020.5 1019.0 0.0
25/12:30am 10.9 10.1 9.8 93 0.6 S 4 7 2 4 1020.6 1019.1 0.0
25/12:00am 11.6 10.6 10.2 91 0.7 ESE 6 7 3 4 1021.0 1019.5 0.0
 
Date/Time
EST
Temp
°C
App
Temp
°C
Dew
Point
°C
Rel
Hum
%
Delta-T
°C
Wind Press
QNH
hPa
Press
MSL
hPa
Rain since
9am
mm
Dir  Spd
km/h
Gust
km/h
Spd
kts
Gust
kts
24/11:30pm 12.3 12.6 10.9 91 0.7 CALM 0 0 0 0 1021.5 1020.0 0.0
24/11:00pm 12.6 12.9 10.8 89 1.0 CALM 0 0 0 0 1021.6 1020.1 0.0
24/10:30pm 13.7 13.8 11.6 87 1.1 S 2 6 1 3 1021.7 1020.2 0.0
24/10:00pm 14.1 14.2 11.4 84 1.5 SSE 2 6 1 3 1021.7 1020.2 0.0
24/09:30pm 14.2 13.4 11.7 85 1.4 SSE 7 7 4 4 1021.6 1020.1 0.0
24/09:00pm 15.0 15.3 12.3 84 1.5 SSE 2 9 1 5 1021.5 1020.0 0.0
24/08:30pm 15.4 15.3 12.0 80 1.9 E 4 7 2 4 1021.4 1019.9 0.0
24/08:00pm 16.3 15.8 12.5 78 2.1 ESE 7 11 4 6 1021.4 1019.9 0.0
24/07:30pm 17.4 16.2 12.7 74 2.7 E 11 13 6 7 1021.0 1019.5 0.0
24/07:00pm 17.8 16.4 12.3 70 3.1 E 11 13 6 7 1020.7 1019.2 0.0
24/06:30pm 18.0 16.9 12.0 68 3.4 E 9 11 5 6 1020.5 1019.0 0.0
24/06:00pm 18.5 16.9 10.3 59 4.5 E 9 11 5 6 1020.3 1018.8 0.0
24/05:30pm 20.6 19.3 10.1 51 5.8 SE 7 9 4 5 1019.8 1018.3 0.0
24/05:00pm 22.1 20.0 9.6 45 6.9 ESE 11 15 6 8 1019.5 1018.0 0.0
24/04:30pm 22.9 20.1 8.6 40 7.8 ESE 13 19 7 10 1019.3 1017.8 0.0
24/04:00pm 23.3 20.4 8.2 38 8.1 SE 13 19 7 10 1019.2 1017.7 0.0
24/03:30pm 23.7 20.8 8.2 37 8.4 ESE 13 19 7 10 1019.2 1017.7 0.0
24/03:00pm 24.1 21.1 7.7 35 8.8 E 13 20 7 11 1019.3 1017.8 0.0
24/02:30pm 24.5 22.2 10.4 41 8.0 SSE 13 20 7 11 1019.4 1017.9 0.0
24/02:00pm 23.8 22.1 11.2 45 7.2 SE 11 19 6 10 1019.6 1018.1 0.0
24/01:30pm 23.6 22.0 11.6 47 6.9 SE 11 24 6 13 1019.9 1018.4 0.0
24/01:00pm 23.9 21.9 11.6 46 7.1 SSE 13 22 7 12 1020.2 1018.7 0.0
24/12:30pm 23.0 21.6 12.3 51 6.2 SSE 11 17 6 9 1020.8 1019.3 0.0
24/12:00pm 22.6 21.7 12.5 53 5.8 ENE 9 17 5 9 1021.3 1019.8 0.0
24/11:30am 22.0 20.9 13.1 57 5.2 E 11 17 6 9 1021.7 1020.2 0.0

Latest Capital City Observations: Canberra | Sydney | Melbourne | Brisbane | Adelaide | Perth | Hobart | Darwin

Other Formats:

Comma delimited format used in spreadsheet applications
http://www.bom.gov.au/fwo/IDQ60901/IDQ60901.94549.axf

JavaScript Object Notation format (JSON) in row-major order
http://www.bom.gov.au/fwo/IDQ60901/IDQ60901.94549.json